Time;durP1;ratioP1;P1;durP2;ratioP2;P2;SDS_P1;SDS_P2;PMS_P1;PMS_P2;Temp;Humidity;BMP_temperature;BMP_pressure;BME280_temperature;BME280_humidity;BME280_pressure;Samples;Min_cycle;Max_cycle;Signal;HPM_P1;HPM_P2
2022/05/05 00:00:44;;;;;;;4.70;3.03;;;;;;;12.67;88.57;98932.81;5096562;28;20044;-61
2022/05/05 00:03:29;;;;;;;4.95;3.08;;;;;;;12.80;87.44;98926.63;5095366;28;20044;-62
2022/05/05 00:06:14;;;;;;;4.05;2.90;;;;;;;12.68;87.44;98925.78;5100930;28;20047;-60
2022/05/05 00:08:59;;;;;;;4.13;2.60;;;;;;;12.65;87.83;98926.81;5098711;28;20465;-60
2022/05/05 00:14:46;;;;;;;3.72;2.47;;;;;;;12.64;87.85;98919.91;5096434;28;20078;-60
2022/05/05 00:17:34;;;;;;;3.20;2.38;;;;;;;12.71;86.67;98932.56;5097241;28;20032;-60
2022/05/05 00:20:18;;;;;;;3.33;2.30;;;;;;;12.94;85.27;98917.72;5097937;28;20043;-61
2022/05/05 00:23:03;;;;;;;6.65;2.60;;;;;;;12.98;84.77;98924.41;5093503;28;20047;-60
2022/05/05 00:25:47;;;;;;;3.50;2.40;;;;;;;12.98;84.64;98918.28;5093816;28;20063;-60
2022/05/05 00:28:33;;;;;;;5.78;2.80;;;;;;;12.98;84.82;98919.13;5093720;28;20032;-59
2022/05/05 00:31:18;;;;;;;3.25;2.25;;;;;;;12.99;84.20;98910.28;5094047;28;20036;-60
2022/05/05 00:34:03;;;;;;;3.92;2.63;;;;;;;12.98;83.93;98911.25;5093090;28;20485;-60
2022/05/05 00:36:47;;;;;;;2.95;2.20;;;;;;;13.04;83.27;98923.91;5094055;28;20093;-60
2022/05/05 00:39:32;;;;;;;3.53;2.38;;;;;;;13.14;83.13;98926.69;5093471;28;20064;-59
2022/05/05 00:42:17;;;;;;;9.40;2.80;;;;;;;13.24;82.87;98921.56;5094376;28;20101;-60
2022/05/05 00:45:02;;;;;;;3.05;2.13;;;;;;;13.24;83.29;98924.19;5092734;28;20169;-60
2022/05/05 00:47:47;;;;;;;4.85;2.47;;;;;;;13.18;83.37;98919.41;5094222;28;20040;-60
2022/05/05 00:50:36;;;;;;;3.72;2.55;;;;;;;13.29;82.87;98922.03;5093773;28;20097;-60
2022/05/05 00:53:22;;;;;;;4.43;2.70;;;;;;;13.34;82.12;98912.94;5093648;28;20071;-59
2022/05/05 00:56:14;;;;;;;3.78;2.30;;;;;;;13.21;82.41;98916.53;5093350;28;20560;-60
2022/05/05 00:59:00;;;;;;;3.67;2.05;;;;;;;13.20;82.42;98914.03;5093836;28;20405;-60
2022/05/05 01:01:45;;;;;;;3.22;2.38;;;;;;;13.41;81.57;98908.88;5092715;28;20139;-60
2022/05/05 01:04:31;;;;;;;4.72;2.42;;;;;;;13.55;80.77;98913.09;5093913;28;20402;-60
2022/05/05 01:07:18;;;;;;;2.97;2.15;;;;;;;13.33;81.96;98906.00;5109533;28;20099;-60
2022/05/05 01:10:03;;;;;;;4.20;2.60;;;;;;;13.35;81.69;98909.38;5070504;28;20040;-61
2022/05/05 01:12:47;;;;;;;6.20;3.08;;;;;;;13.35;82.32;98909.38;5103136;28;20032;-60
2022/05/05 01:15:36;;;;;;;3.08;2.10;;;;;;;13.51;81.44;98917.75;5089191;28;20386;-60
2022/05/05 01:18:20;;;;;;;4.35;2.17;;;;;;;13.48;81.66;98915.31;5091022;28;20050;-59
2022/05/05 01:21:09;;;;;;;4.03;2.65;;;;;;;13.40;81.57;98912.47;5091769;28;20044;-59
2022/05/05 01:23:53;;;;;;;3.45;2.50;;;;;;;13.39;81.43;98914.28;5090263;28;20111;-59
2022/05/05 01:29:41;;;;;;;4.93;2.85;;;;;;;13.36;82.20;98917.16;5090933;28;20110;-59
2022/05/05 01:32:30;;;;;;;3.45;2.17;;;;;;;13.35;82.05;98920.72;5090673;28;20420;-61
2022/05/05 01:35:15;;;;;;;4.97;2.58;;;;;;;13.30;82.46;98936.03;5090889;28;20106;-60
2022/05/05 01:38:00;;;;;;;4.78;2.35;;;;;;;13.25;83.54;98939.00;5091037;28;20563;-59
2022/05/05 01:40:47;;;;;;;5.68;2.60;;;;;;;13.28;83.42;98940.56;5072803;28;20047;-59
2022/05/05 01:43:32;;;;;;;5.30;3.03;;;;;;;13.26;82.83;98942.47;5072749;28;20109;-61
2022/05/05 01:46:17;;;;;;;3.95;2.83;;;;;;;13.21;82.92;98948.09;5071872;28;20552;-59
2022/05/05 01:49:02;;;;;;;3.55;2.33;;;;;;;13.24;83.52;98941.75;5072676;28;20040;-59
2022/05/05 01:51:47;;;;;;;4.18;2.67;;;;;;;13.41;82.39;98940.47;5086036;28;20064;-59
2022/05/05 01:54:31;;;;;;;5.53;3.58;;;;;;;13.27;82.80;98937.09;5072900;28;20522;-60
2022/05/05 01:57:16;;;;;;;4.10;3.15;;;;;;;13.07;84.26;98933.38;5072668;28;20063;-60
2022/05/05 02:00:02;;;;;;;4.78;2.85;;;;;;;13.06;84.23;98943.06;5072138;28;20448;-60
2022/05/05 02:02:59;;;;;;;4.60;3.17;;;;;;;13.11;84.20;98947.13;5082012;28;20074;-60
2022/05/05 02:05:45;;;;;;;3.63;2.55;;;;;;;13.30;84.27;98947.38;5094077;28;20040;-59
2022/05/05 02:08:30;;;;;;;3.72;2.72;;;;;;;13.52;83.19;98940.50;5097515;28;20036;-60
2022/05/05 02:11:15;;;;;;;4.63;3.00;;;;;;;13.22;83.79;98941.06;5093251;28;20044;-59
2022/05/05 02:13:59;;;;;;;4.15;3.08;;;;;;;13.27;83.52;98939.72;5077147;28;20573;-60
2022/05/05 02:16:44;;;;;;;2.70;1.85;;;;;;;13.63;82.97;98936.16;5093056;28;20244;-59
2022/05/05 02:19:29;;;;;;;3.63;2.67;;;;;;;13.67;82.56;98940.25;5093122;28;20402;-61
2022/05/05 02:22:14;;;;;;;5.57;2.58;;;;;;;13.71;81.29;98931.13;5077824;28;20401;-60
2022/05/05 02:24:59;;;;;;;4.82;2.22;;;;;;;13.74;81.66;98930.06;5077467;28;20056;-59
2022/05/05 02:27:52;;;;;;;3.75;2.25;;;;;;;13.46;81.96;98922.53;5092737;28;20093;-61
2022/05/05 02:30:37;;;;;;;3.35;2.30;;;;;;;13.48;82.00;98936.38;5092353;28;20051;-60
2022/05/05 02:33:22;;;;;;;3.60;2.00;;;;;;;13.54;82.29;98941.22;5105169;28;20036;-60
2022/05/05 02:39:10;;;;;;;3.92;2.33;;;;;;;13.27;83.13;98945.00;5092252;28;20077;-60
2022/05/05 02:41:55;;;;;;;3.67;2.00;;;;;;;13.55;82.77;98944.66;5091239;28;20044;-61
2022/05/05 02:44:40;;;;;;;4.68;2.70;;;;;;;13.28;83.96;98948.47;5092219;28;20062;-60
2022/05/05 02:47:24;;;;;;;3.28;2.00;;;;;;;13.33;84.15;98948.09;5092137;28;20040;-60
2022/05/05 02:50:09;;;;;;;4.30;2.70;;;;;;;13.11;84.92;98958.47;5091224;28;20044;-61
2022/05/05 02:52:54;;;;;;;4.03;2.60;;;;;;;13.32;84.12;98951.72;5091913;28;20089;-61
2022/05/05 02:55:39;;;;;;;3.67;2.40;;;;;;;12.97;85.48;98956.91;5091067;28;20036;-60
2022/05/05 02:58:24;;;;;;;3.72;2.17;;;;;;;12.76;87.11;98962.81;5092014;28;20040;-60
2022/05/05 03:01:09;;;;;;;5.65;2.95;;;;;;;12.68;87.98;98960.75;5095449;28;20115;-60
2022/05/05 03:03:53;;;;;;;3.95;2.60;;;;;;;12.63;88.16;98962.88;5095413;28;20105;-61
2022/05/05 03:06:38;;;;;;;3.42;2.22;;;;;;;12.73;87.62;98970.94;5091444;28;20036;-61
2022/05/05 03:09:23;;;;;;;3.70;1.73;;;;;;;12.85;87.89;98974.44;5091833;28;20036;-60
2022/05/05 03:12:09;;;;;;;3.60;2.67;;;;;;;12.83;86.79;98970.25;5094512;28;20039;-60
2022/05/05 03:14:54;;;;;;;2.47;1.50;;;;;;;13.05;87.72;98966.84;5104639;28;20066;-60
2022/05/05 03:17:39;;;;;;;1.73;1.10;;;;;;;13.42;85.51;98971.91;5094815;28;20035;-60
2022/05/05 03:20:24;;;;;;;3.88;2.10;;;;;;;13.60;83.10;98966.22;5103316;28;20039;-61
2022/05/05 03:23:09;;;;;;;2.50;1.95;;;;;;;13.39;84.66;98968.69;5111385;28;20093;-61
2022/05/05 03:25:53;;;;;;;2.95;1.83;;;;;;;13.63;83.75;98963.34;5110824;28;20040;-60
2022/05/05 03:28:39;;;;;;;3.17;2.17;;;;;;;13.76;82.39;98965.00;5110861;28;20043;-61
2022/05/05 03:31:23;;;;;;;4.57;1.67;;;;;;;13.94;82.94;98975.06;5111620;28;20036;-61
2022/05/05 03:34:09;;;;;;;3.38;1.50;;;;;;;14.02;82.73;98969.97;5111819;28;20047;-61
2022/05/05 03:36:54;;;;;;;2.50;1.75;;;;;;;14.25;81.64;98981.31;5112019;28;20043;-61
2022/05/05 03:39:39;;;;;;;3.05;1.60;;;;;;;14.15;81.21;98975.13;5112241;28;20036;-60
2022/05/05 03:42:23;;;;;;;2.65;2.17;;;;;;;13.55;83.51;98979.72;5111869;28;20039;-60
2022/05/05 03:45:09;;;;;;;3.88;2.38;;;;;;;13.74;82.86;98975.63;5110560;28;20100;-61
2022/05/05 03:47:53;;;;;;;4.15;1.88;;;;;;;13.49;83.68;98974.91;5111796;28;20046;-61
2022/05/05 03:50:38;;;;;;;3.60;2.03;;;;;;;13.15;85.61;98980.94;5111522;28;20070;-61
2022/05/05 03:53:23;;;;;;;5.20;2.45;;;;;;;13.28;84.40;98982.66;5111479;28;20073;-61
2022/05/05 03:56:08;;;;;;;4.38;2.17;;;;;;;13.33;84.88;98980.53;5112037;28;20047;-60
2022/05/05 03:58:53;;;;;;;2.25;1.38;;;;;;;13.65;83.74;98986.91;5111553;28;20174;-60
2022/05/05 04:01:37;;;;;;;3.17;1.90;;;;;;;13.84;83.19;98986.28;5111506;28;20040;-61
2022/05/05 04:04:22;;;;;;;2.70;1.50;;;;;;;14.00;81.55;98995.63;5091277;28;20040;-61
2022/05/05 04:07:07;;;;;;;3.05;1.58;;;;;;;14.18;80.78;99005.66;5107178;28;20048;-61
2022/05/05 04:09:53;;;;;;;3.17;2.20;;;;;;;14.19;80.46;99005.53;5100833;28;20071;-60
2022/05/05 04:12:38;;;;;;;1.52;1.20;;;;;;;14.47;80.37;99007.72;5097450;28;20474;-60
2022/05/05 04:15:24;;;;;;;2.83;2.03;;;;;;;14.53;78.68;99009.88;5090525;28;20067;-61
2022/05/05 04:18:08;;;;;;;3.40;1.73;;;;;;;14.12;80.11;99009.59;5108594;28;20046;-59
2022/05/05 04:20:53;;;;;;;1.88;1.17;;;;;;;13.78;81.97;99016.59;5114486;28;20541;-61
2022/05/05 04:23:38;;;;;;;1.90;1.58;;;;;;;14.23;81.60;99014.84;5106365;28;20054;-62
2022/05/05 04:26:24;;;;;;;3.88;1.63;;;;;;;14.57;78.56;99015.72;5094306;28;20067;-60
2022/05/05 04:29:10;;;;;;;3.55;1.65;;;;;;;14.59;79.56;99022.53;5094560;28;20047;-60
2022/05/05 04:31:55;;;;;;;3.40;1.70;;;;;;;14.76;79.37;99021.19;5103102;28;20453;-59
2022/05/05 04:34:40;;;;;;;4.40;2.47;;;;;;;14.70;78.87;99020.84;5113731;28;20059;-58
2022/05/05 04:37:25;;;;;;;3.53;1.98;;;;;;;14.69;79.18;99020.00;5099766;28;20093;-57
2022/05/05 04:40:10;;;;;;;2.95;1.90;;;;;;;14.59;79.16;99024.38;5115277;28;20039;-59
2022/05/05 04:42:55;;;;;;;5.00;2.90;;;;;;;14.76;79.61;99025.59;5114787;28;20035;-59
2022/05/05 04:45:40;;;;;;;5.70;2.30;;;;;;;14.73;76.99;99031.13;5099817;28;20036;-58
2022/05/05 04:48:25;;;;;;;5.82;2.90;;;;;;;14.39;78.56;99019.72;5099472;28;20079;-58
2022/05/05 04:51:09;;;;;;;4.25;2.88;;;;;;;13.85;81.09;99022.22;5112238;28;20058;-57
2022/05/05 04:53:54;;;;;;;5.32;2.70;;;;;;;14.23;80.18;99027.22;5093995;28;20044;-59
2022/05/05 04:56:38;;;;;;;4.57;3.08;;;;;;;14.11;79.83;99024.59;5094556;28;20051;-60
2022/05/05 04:59:23;;;;;;;5.93;2.90;;;;;;;14.02;81.02;99017.41;5093938;28;20032;-50
2022/05/05 05:02:09;;;;;;;4.45;3.17;;;;;;;15.13;75.33;99030.50;5094502;28;20036;-63
2022/05/05 05:04:53;;;;;;;4.43;3.10;;;;;;;15.64;73.82;99032.47;5094189;28;20075;-63
2022/05/05 05:07:38;;;;;;;4.57;2.88;;;;;;;15.71;73.11;99030.13;5094025;28;20039;-62
2022/05/05 05:10:22;;;;;;;7.10;4.00;;;;;;;16.11;71.83;99033.78;5094125;28;20040;-66
2022/05/05 05:13:07;;;;;;;4.85;3.63;;;;;;;15.18;74.14;99035.38;5093544;28;20379;-65
2022/05/05 05:15:52;;;;;;;10.32;5.20;;;;;;;16.16;72.55;99028.91;5092707;28;20040;-66
2022/05/05 05:18:37;;;;;;;5.45;3.17;;;;;;;16.34;71.94;99030.91;5092234;28;20097;-65
2022/05/05 05:21:24;;;;;;;6.90;3.08;;;;;;;16.72;72.65;99024.00;5092388;28;20040;-64
2022/05/05 05:24:09;;;;;;;7.45;3.40;;;;;;;15.65;72.29;99020.94;5093166;28;20051;-64
2022/05/05 05:26:54;;;;;;;5.32;3.42;;;;;;;14.91;75.72;99031.47;5093387;28;20051;-64
2022/05/05 05:29:39;;;;;;;5.13;3.65;;;;;;;14.77;76.30;99035.22;5095055;28;20035;-62
2022/05/05 05:32:24;;;;;;;4.72;3.35;;;;;;;14.97;76.88;99036.22;5097135;28;20040;-62
2022/05/05 05:35:09;;;;;;;7.20;3.83;;;;;;;15.12;75.08;99038.53;5094980;28;20161;-64
2022/05/05 05:37:54;;;;;;;5.72;2.97;;;;;;;15.18;76.46;99031.94;5094128;28;20056;-61
2022/05/05 05:40:40;;;;;;;5.65;3.50;;;;;;;15.30;74.60;99037.97;5095856;28;20040;-62
2022/05/05 05:43:25;;;;;;;7.22;3.40;;;;;;;14.69;76.47;99037.63;5096314;28;20533;-62
2022/05/05 05:46:10;;;;;;;6.75;3.95;;;;;;;14.84;76.25;99032.91;5093963;28;20032;-63
2022/05/05 05:48:56;;;;;;;6.10;4.20;;;;;;;14.77;76.23;99029.94;5078124;28;20039;-62
2022/05/05 05:51:41;;;;;;;4.82;3.47;;;;;;;15.38;74.02;99038.16;5091897;28;20052;-62
2022/05/05 05:54:26;;;;;;;5.63;3.72;;;;;;;15.26;73.88;99038.22;5091936;28;20068;-63
2022/05/05 05:57:11;;;;;;;5.97;3.75;;;;;;;15.54;73.48;99047.44;5092787;28;20036;-62
2022/05/05 05:59:57;;;;;;;6.80;3.72;;;;;;;15.59;72.80;99039.94;5105908;28;20108;-66
2022/05/05 06:05:46;;;;;;;5.88;4.22;;;;;;;14.98;75.16;99051.06;5091147;28;20043;-61
2022/05/05 06:08:31;;;;;;;6.93;4.53;;;;;;;15.82;72.54;99056.47;5093577;28;20032;-62
2022/05/05 06:11:18;;;;;;;6.47;4.53;;;;;;;15.75;71.83;99058.78;5094131;28;20040;-66
2022/05/05 06:14:04;;;;;;;7.85;4.95;;;;;;;15.63;72.22;99065.94;5091820;28;20043;-65
2022/05/05 06:16:49;;;;;;;8.35;5.40;;;;;;;15.48;73.09;99073.38;5077777;28;20055;-64
2022/05/05 06:19:35;;;;;;;6.63;3.80;;;;;;;15.82;72.10;99079.38;5077662;28;20032;-64
2022/05/05 06:22:19;;;;;;;6.45;3.88;;;;;;;16.19;71.46;99073.59;5091401;28;20036;-63
2022/05/05 06:25:05;;;;;;;6.70;4.30;;;;;;;16.71;67.87;99077.06;5077278;28;20036;-64
2022/05/05 06:27:50;;;;;;;6.00;4.30;;;;;;;15.93;70.86;99081.94;5105572;28;20386;-62
2022/05/05 06:30:34;;;;;;;6.30;4.63;;;;;;;15.89;71.08;99089.31;5091568;28;20055;-63
2022/05/05 06:33:20;;;;;;;8.20;4.30;;;;;;;16.00;70.77;99090.19;5076673;28;20459;-64
2022/05/05 06:36:05;;;;;;;6.90;4.50;;;;;;;16.29;70.21;99083.38;5105591;28;20043;-62
2022/05/05 06:38:52;;;;;;;6.85;4.40;;;;;;;16.66;68.64;99087.19;5092042;28;20039;-62
2022/05/05 06:41:37;;;;;;;6.65;4.43;;;;;;;17.14;66.92;99084.75;5091923;28;20068;-63
2022/05/05 06:44:23;;;;;;;9.20;4.78;;;;;;;16.85;67.24;99076.66;5092126;28;20047;-64
2022/05/05 06:47:08;;;;;;;7.55;4.60;;;;;;;16.76;67.85;99077.47;5091931;28;20094;-65
2022/05/05 06:49:52;;;;;;;7.15;4.15;;;;;;;17.30;67.31;99079.72;5091167;28;20044;-64
2022/05/05 06:52:39;;;;;;;6.25;3.92;;;;;;;17.87;64.61;99082.53;5091963;28;20082;-65
2022/05/05 06:55:24;;;;;;;7.32;4.60;;;;;;;18.32;62.81;99079.13;5076993;28;20047;-62
2022/05/05 06:58:08;;;;;;;6.85;4.38;;;;;;;17.62;64.79;99088.31;5105204;28;20047;-64
2022/05/05 07:07:02;;;;;;;9.25;5.30;;;;;;;17.77;64.02;99093.16;5083213;28;20123;-64
2022/05/05 07:12:51;;;;;;;7.22;4.60;;;;;;;18.41;62.42;99089.84;5090505;28;20044;-62
2022/05/05 07:15:37;;;;;;;8.13;5.35;;;;;;;18.07;62.20;99096.50;5048566;28;20454;-62
2022/05/05 07:18:21;;;;;;;9.23;5.00;;;;;;;17.74;63.22;99091.59;5090641;28;20040;-63
2022/05/05 07:21:06;;;;;;;9.35;6.05;;;;;;;17.37;64.09;99098.50;5076247;28;20059;-64
2022/05/05 07:23:51;;;;;;;8.10;5.00;;;;;;;17.85;62.46;99094.06;5091683;28;20089;-66
2022/05/05 07:26:36;;;;;;;8.30;5.15;;;;;;;18.14;62.47;99089.69;5076251;28;20419;-65
2022/05/05 07:29:21;;;;;;;7.60;5.68;;;;;;;17.82;62.10;99094.38;5076218;28;20372;-65
2022/05/05 07:32:07;;;;;;;7.32;5.20;;;;;;;18.74;60.42;99099.94;5090241;28;20165;-64
2022/05/05 07:34:51;;;;;;;9.57;6.35;;;;;;;18.19;62.21;99102.50;5076100;28;20036;-64
2022/05/05 07:37:37;;;;;;;8.63;6.13;;;;;;;18.83;59.85;99101.72;5090291;28;20035;-63
2022/05/05 07:40:21;;;;;;;11.13;5.82;;;;;;;19.49;57.88;99104.13;5091135;28;20100;-65
2022/05/05 07:43:07;;;;;;;7.18;5.05;;;;;;;18.63;59.42;99103.66;5094943;28;20040;-64
2022/05/05 07:45:51;;;;;;;8.35;5.35;;;;;;;19.77;56.26;99105.78;5095624;28;20161;-65
2022/05/05 07:48:36;;;;;;;7.82;4.78;;;;;;;19.86;56.01;99104.88;5080027;28;20082;-62
2022/05/05 07:51:21;;;;;;;9.00;5.60;;;;;;;19.26;56.24;99109.91;5094986;28;20052;-65
2022/05/05 07:57:12;;;;;;;6.60;4.72;;;;;;;20.93;51.73;99108.09;5094913;28;20051;-67
2022/05/05 07:59:57;;;;;;;10.43;4.47;;;;;;;21.11;51.40;99107.13;5094058;28;20048;-64
2022/05/05 08:02:42;;;;;;;7.60;5.28;;;;;;;21.15;50.98;99116.47;5094939;28;20358;-63
2022/05/05 08:05:27;;;;;;;8.15;5.18;;;;;;;20.21;53.83;99117.34;5095072;28;20044;-63
2022/05/05 08:08:12;;;;;;;7.15;5.22;;;;;;;20.56;53.10;99120.81;5094377;28;20067;-64
2022/05/05 08:10:57;;;;;;;7.63;5.10;;;;;;;20.56;53.22;99120.81;5098317;28;20540;-62
2022/05/05 08:13:42;;;;;;;7.40;4.65;;;;;;;21.52;50.54;99122.25;5109446;28;20036;-62
2022/05/05 08:16:27;;;;;;;8.07;5.30;;;;;;;20.52;53.05;99119.44;5094301;28;20039;-65
2022/05/05 08:19:11;;;;;;;7.90;5.63;;;;;;;21.35;50.98;99119.59;5093655;28;20153;-64
2022/05/05 08:21:58;;;;;;;8.93;5.82;;;;;;;21.59;50.09;99117.09;5094804;28;20498;-63
2022/05/05 08:30:48;;;;;;;6.93;4.90;;;;;;;22.71;46.91;99112.75;5094583;28;20040;-66
2022/05/05 08:33:32;;;;;;;9.65;4.50;;;;;;;22.35;47.93;99115.91;5094608;28;20058;-64
2022/05/05 08:36:17;;;;;;;7.32;4.93;;;;;;;22.25;49.26;99116.94;5093553;28;20047;-62
2022/05/05 08:39:02;;;;;;;9.38;5.97;;;;;;;22.07;49.57;99116.34;5094647;28;20044;-62
2022/05/05 08:41:47;;;;;;;8.60;5.47;;;;;;;22.28;48.47;99121.09;5093001;28;20394;-63
2022/05/05 08:44:32;;;;;;;9.32;5.75;;;;;;;22.70;48.13;99112.94;5093611;28;20387;-65
2022/05/05 08:47:17;;;;;;;7.47;5.70;;;;;;;22.76;48.19;99104.22;5093366;28;20048;-64
2022/05/05 08:50:03;;;;;;;7.30;4.65;;;;;;;23.24;47.06;99114.69;5093347;28;20040;-63
2022/05/05 08:52:50;;;;;;;6.90;5.15;;;;;;;23.28;45.69;99117.00;5075935;28;20051;-65
2022/05/05 08:55:35;;;;;;;7.75;5.82;;;;;;;21.90;48.44;99125.22;5094501;28;20040;-65
2022/05/05 08:58:21;;;;;;;7.85;4.82;;;;;;;21.47;50.53;99120.09;5093535;28;20040;-65
2022/05/05 09:01:07;;;;;;;7.18;5.15;;;;;;;23.36;46.24;99124.97;5090533;28;20044;-63
2022/05/05 09:03:51;;;;;;;8.68;5.15;;;;;;;22.34;47.74;99123.09;5092216;28;20032;-61
2022/05/05 09:06:46;;;;;;;8.70;5.22;;;;;;;22.72;47.02;99125.09;5091792;28;20059;-64
2022/05/05 09:09:32;;;;;;;7.75;5.00;;;;;;;22.49;47.86;99133.84;5092214;28;20044;-62
2022/05/05 09:12:18;;;;;;;13.32;5.80;;;;;;;23.04;46.28;99132.22;5093134;28;20093;-58
2022/05/05 09:15:08;;;;;;;7.30;5.22;;;;;;;25.32;42.03;99124.78;5093224;28;20044;-64
2022/05/05 09:17:53;;;;;;;6.50;4.97;;;;;;;24.23;43.96;99132.66;5073273;28;20044;-64
2022/05/05 09:20:38;;;;;;;8.25;4.95;;;;;;;23.81;44.14;99129.59;5076173;28;20439;-65
2022/05/05 09:23:28;;;;;;;6.47;4.68;;;;;;;24.11;42.97;99133.09;5092777;28;20044;-65
2022/05/05 09:26:23;;;;;;;7.70;4.97;;;;;;;24.39;42.04;99128.13;5093262;28;20112;-63
2022/05/05 09:29:20;;;;;;;5.93;4.68;;;;;;;24.54;41.73;99128.09;5093187;28;20454;-68
2022/05/05 09:32:12;;;;;;;7.45;4.72;;;;;;;24.50;42.18;99133.00;5093107;28;20040;-45
2022/05/05 09:35:13;;;;;;;7.80;3.97;;;;;;;25.31;40.22;99116.94;5077956;28;20391;-48
2022/05/05 09:37:58;;;;;;;7.38;5.15;;;;;;;24.98;39.84;99139.72;5093396;28;20436;-64
2022/05/05 09:41:02;;;;;;;7.75;4.40;;;;;;;25.01;39.75;99138.50;5105728;28;20427;-63
2022/05/05 09:43:47;;;;;;;7.20;4.40;;;;;;;25.23;39.32;99128.63;5090500;28;20047;-66
2022/05/05 09:46:35;;;;;;;6.50;3.60;;;;;;;25.95;38.16;99133.91;5072020;28;20044;-64
2022/05/05 09:49:20;;;;;;;8.75;4.13;;;;;;;26.14;37.11;99131.56;5072814;28;20041;-63
2022/05/05 09:58:16;;;;;;;5.95;4.32;;;;;;;26.46;36.39;99127.59;5073147;28;20040;-63
2022/05/05 10:01:08;;;;;;;10.75;5.15;;;;;;;25.14;38.47;99129.75;5085790;28;20539;-65
2022/05/05 10:04:02;;;;;;;7.35;4.53;;;;;;;26.92;35.56;99126.03;5088921;28;20036;-62
2022/05/05 10:06:48;;;;;;;6.05;4.55;;;;;;;27.37;34.56;99120.09;5093002;28;20040;-62
2022/05/05 10:09:33;;;;;;;7.20;4.53;;;;;;;27.26;34.66;99118.03;5078745;28;20043;-63
2022/05/05 10:12:18;;;;;;;7.32;4.88;;;;;;;27.81;33.54;99121.53;5096938;28;20044;-63
2022/05/05 10:15:04;;;;;;;5.90;4.15;;;;;;;27.02;35.63;99120.31;5091915;28;20345;-64
2022/05/05 10:17:49;;;;;;;8.60;4.43;;;;;;;27.83;34.10;99124.88;5093304;28;20040;-65
2022/05/05 10:20:35;;;;;;;7.20;5.10;;;;;;;27.85;33.44;99126.28;5077478;28;20036;-63
2022/05/05 10:23:41;;;;;;;8.32;5.22;;;;;;;25.78;36.85;99122.69;5091862;28;20048;-64
2022/05/05 10:26:27;;;;;;;7.38;4.93;;;;;;;26.75;35.44;99122.91;5091618;28;20252;-65
2022/05/05 10:29:47;;;;;;;6.43;5.20;;;;;;;27.82;34.05;99110.56;5092422;28;20391;-65
2022/05/05 10:32:33;;;;;;;8.27;5.93;;;;;;;26.71;36.05;99110.91;5010168;28;20104;-65
2022/05/05 10:35:23;;;;;;;6.28;5.25;;;;;;;27.30;35.39;99114.72;5092366;28;20040;-63
2022/05/05 10:38:40;;;;;;;11.80;5.75;;;;;;;27.95;34.49;99111.56;5092188;28;20447;-63
2022/05/05 10:41:37;;;;;;;8.95;5.85;;;;;;;27.91;34.80;99119.22;5076944;28;20044;-65
2022/05/05 10:44:24;;;;;;;8.45;6.47;;;;;;;28.32;33.56;99113.72;5092074;28;20093;-63
2022/05/05 10:47:08;;;;;;;7.68;5.82;;;;;;;28.49;33.35;99111.38;5091034;28;20394;-64
2022/05/05 10:49:53;;;;;;;6.78;5.53;;;;;;;28.45;33.65;99108.28;5093659;28;20043;-65
2022/05/05 10:52:50;;;;;;;8.57;6.32;;;;;;;27.75;35.18;99105.19;5095418;28;20109;-63
2022/05/05 10:55:49;;;;;;;6.85;4.97;;;;;;;29.10;33.01;99101.06;5092827;28;20417;-64
2022/05/05 10:58:55;;;;;;;7.72;5.30;;;;;;;28.52;33.93;99103.72;5093537;28;20316;-63
2022/05/05 11:01:45;;;;;;;8.15;5.97;;;;;;;27.43;35.55;99105.84;5100762;28;20044;-65
2022/05/05 11:04:31;;;;;;;;;;;;;;;28.90;33.13;99111.97;5100777;28;20044;-65
2022/05/05 11:07:30;;;;;;;7.82;5.20;;;;;;;28.94;32.51;99096.22;5093231;28;19919;-62
2022/05/05 11:11:39;;;;;;;8.50;5.72;;;;;;;28.10;33.48;99114.00;5090818;28;20046;-67
2022/05/05 11:13:55;;;;;;;7.07;5.60;;;;;;;27.98;32.82;99103.06;5091572;28;20036;-65
2022/05/05 11:22:48;;;;;;;6.10;5.25;;;;;;;28.51;33.40;99101.22;5091643;28;20387;-66
2022/05/05 11:25:33;;;;;;;6.63;5.93;;;;;;;28.89;33.26;99097.69;5090637;28;20040;-65
2022/05/05 11:28:18;;;;;;;7.05;4.68;;;;;;;28.06;33.66;99096.66;5091648;28;20062;-66
2022/05/05 11:31:15;;;;;;;6.88;5.40;;;;;;;27.54;34.52;99093.63;5090704;28;20052;-64
2022/05/05 11:34:03;;;;;;;6.72;5.80;;;;;;;28.53;32.87;99099.97;5090171;28;20067;-64
2022/05/05 11:36:48;;;;;;;7.90;5.65;;;;;;;29.34;31.70;99098.59;5091449;28;20406;-64
2022/05/05 11:39:35;;;;;;;7.50;6.22;;;;;;;28.69;32.53;99100.50;5091463;28;20028;-65
2022/05/05 11:42:20;;;;;;;9.23;6.85;;;;;;;27.68;35.01;99109.78;5090195;28;20467;-63
2022/05/05 11:45:05;;;;;;;7.75;6.07;;;;;;;28.75;33.15;99105.03;5090980;28;20040;-65
2022/05/05 11:47:50;;;;;;;7.50;6.10;;;;;;;29.66;30.97;99096.88;5091420;28;20094;-64
2022/05/05 11:50:41;;;;;;;7.05;5.53;;;;;;;29.05;31.21;99100.94;5090138;28;20081;-64
2022/05/05 11:53:28;;;;;;;;;;;;;;;27.59;33.35;99101.06;5090540;28;20194;-64
2022/05/05 11:56:13;;;;;;;8.15;4.78;;;;;;;26.71;35.17;99097.47;5091024;28;20008;-64
2022/05/05 12:02:23;;;;;;;5.13;3.53;;;;;;;26.49;35.38;99089.59;5094832;28;20129;-65
2022/05/05 12:05:08;;;;;;;5.22;3.80;;;;;;;26.61;35.11;99090.66;5111433;28;20337;-65
2022/05/05 12:07:53;;;;;;;10.30;4.93;;;;;;;26.17;35.81;99090.88;5112150;28;20047;-63
2022/05/05 12:10:39;;;;;;;8.13;5.32;;;;;;;25.70;36.76;99086.13;5112627;28;20040;-65
2022/05/05 12:13:25;;;;;;;6.72;4.68;;;;;;;26.64;35.45;99081.34;5113886;28;20038;-66
2022/05/05 12:16:10;;;;;;;8.25;5.45;;;;;;;26.63;36.02;99087.75;5111808;28;20047;-66
2022/05/05 12:18:55;;;;;;;6.60;4.63;;;;;;;28.07;33.27;99082.97;5124989;28;20043;-63
2022/05/05 12:21:55;;;;;;;5.68;4.35;;;;;;;28.95;32.00;99082.50;5110565;28;20114;-64
2022/05/05 12:24:45;;;;;;;6.65;4.47;;;;;;;27.67;34.07;99075.78;5110497;28;20028;-65
2022/05/05 12:27:29;;;;;;;6.25;4.50;;;;;;;27.22;33.90;99074.63;5081844;28;20043;-64
2022/05/05 12:30:34;;;;;;;7.15;4.13;;;;;;;27.01;33.78;99065.72;5114328;28;20040;-64
2022/05/05 12:33:35;;;;;;;4.70;3.50;;;;;;;27.51;32.94;99060.94;5113839;28;20047;-66
2022/05/05 12:36:27;;;;;;;2.85;2.15;;;;;;;28.84;29.96;99057.06;5099668;28;20050;-64
2022/05/05 12:39:12;;;;;;;4.65;2.67;;;;;;;29.75;28.06;99057.78;5114685;28;20040;-65
2022/05/05 12:41:57;;;;;;;2.63;1.95;;;;;;;30.82;26.53;99054.72;5114997;28;20118;-66
2022/05/05 12:44:46;;;;;;;3.08;1.85;;;;;;;30.02;27.69;99052.03;5115293;28;20070;-65
2022/05/05 12:47:30;;;;;;;3.80;2.20;;;;;;;31.04;25.50;99045.25;5114381;28;20048;-65
2022/05/05 12:50:48;;;;;;;3.72;2.22;;;;;;;30.58;26.39;99048.41;5115194;28;20050;-65
2022/05/05 12:59:36;;;;;;;4.65;2.63;;;;;;;28.05;29.31;99047.34;5023645;28;20037;-66
2022/05/05 13:00:14;;;;;;;5.40;2.22;;;;;;;27.78;29.81;99048.28;5018118;28;20045;-65
2022/05/05 13:02:58;;;;;;;3.10;2.25;;;;;;;28.93;28.30;99046.84;5105874;28;20028;-66
2022/05/05 13:05:43;;;;;;;3.20;2.50;;;;;;;29.25;29.48;99046.81;5093592;28;20070;-66
2022/05/05 13:08:27;;;;;;;5.30;3.30;;;;;;;28.28;30.21;99046.00;5094310;28;20062;-65
2022/05/05 13:11:14;;;;;;;6.00;2.80;;;;;;;28.12;30.45;99045.44;5094336;28;20036;-64
2022/05/05 13:13:58;;;;;;;4.15;2.90;;;;;;;28.60;30.33;99046.06;5093112;28;20047;-65
2022/05/05 13:16:43;;;;;;;6.63;3.30;;;;;;;27.09;32.63;99045.88;5093962;28;20040;-65
2022/05/05 13:19:29;;;;;;;5.93;3.22;;;;;;;27.96;31.70;99040.56;5092623;28;20044;-64
2022/05/05 13:22:13;;;;;;;2.67;2.20;;;;;;;28.42;30.83;99038.69;5092785;28;20036;-64
2022/05/05 13:24:58;;;;;;;4.18;3.10;;;;;;;28.42;30.33;99030.63;5093637;28;20048;-64
2022/05/05 13:27:43;;;;;;;4.40;2.63;;;;;;;26.47;33.36;99032.56;5093035;28;20044;-63
2022/05/05 13:30:28;;;;;;;4.85;3.00;;;;;;;25.80;34.30;99032.09;5078086;28;20043;-64
2022/05/05 13:33:12;;;;;;;3.53;2.50;;;;;;;26.08;33.74;99038.41;5093385;28;20109;-64
2022/05/05 13:35:59;;;;;;;3.88;2.60;;;;;;;26.18;33.65;99040.69;5093873;28;20379;-64
2022/05/05 13:38:43;;;;;;;3.83;2.38;;;;;;;25.34;35.23;99038.81;5092129;28;20032;-63
2022/05/05 13:41:28;;;;;;;3.25;2.40;;;;;;;25.72;34.59;99024.22;5093464;28;20052;-63
2022/05/05 13:44:14;;;;;;;3.05;2.42;;;;;;;25.58;35.11;99023.28;5078097;28;20368;-63
2022/05/05 13:47:00;;;;;;;3.10;2.35;;;;;;;26.22;34.12;99031.22;5092284;28;20040;-64
2022/05/05 13:49:45;;;;;;;5.47;3.80;;;;;;;26.25;33.70;99030.00;5093471;28;20116;-64
2022/05/05 13:52:30;;;;;;;2.85;2.42;;;;;;;26.21;33.53;99024.22;5078442;28;20035;-64
2022/05/05 13:55:16;;;;;;;3.33;2.13;;;;;;;26.37;33.92;99023.06;5092215;28;20036;-64